createdAt,value
2019-01-05T00:02:02.480Z,102582.00
2019-01-05T00:04:36.252Z,102587.00
2019-01-05T00:07:07.605Z,102585.00
2019-01-05T00:09:55.243Z,102581.00
2019-01-05T00:12:26.547Z,102581.00
2019-01-05T00:15:03.871Z,102580.00
2019-01-05T00:17:52.216Z,102577.00
2019-01-05T00:20:29.710Z,102583.00
2019-01-05T00:23:10.649Z,102583.00
2019-01-05T00:25:58.342Z,102577.00
2019-01-05T00:28:47.337Z,102581.00
2019-01-05T00:31:24.573Z,102577.00
2019-01-05T00:34:00.289Z,102576.00
2019-01-05T00:36:33.963Z,102578.00
2019-01-05T00:39:07.676Z,102583.00
2019-01-05T00:41:44.629Z,102581.00
2019-01-05T00:44:22.168Z,102588.00
2019-01-05T00:47:02.031Z,102583.00
2019-01-05T00:49:46.975Z,102588.00
2019-01-05T00:52:26.016Z,102597.00
2019-01-05T00:55:13.946Z,102579.00
2019-01-05T00:58:00.986Z,102588.00
2019-01-05T01:00:48.889Z,102580.00
2019-01-05T01:03:37.838Z,102569.00
2019-01-05T01:06:27.879Z,102583.00
2019-01-05T01:08:59.197Z,102581.00
2019-01-05T01:11:45.595Z,102581.00
2019-01-05T01:14:17.033Z,102582.00
2019-01-05T01:16:57.480Z,102586.00
2019-01-05T01:19:31.781Z,102587.00
2019-01-05T01:22:05.976Z,102577.00
2019-01-05T01:24:37.310Z,102571.00
2019-01-05T01:27:11.614Z,102570.00
2019-01-05T01:29:43.416Z,102581.00
2019-01-05T01:32:18.445Z,102577.00
2019-01-05T01:35:08.224Z,102579.00
2019-01-05T01:38:30.460Z,102577.00
2019-01-05T01:41:17.692Z,102575.00
2019-01-05T01:44:09.932Z,102581.00
2019-01-05T01:46:50.510Z,102569.00
2019-01-05T01:49:42.225Z,102567.00
2019-01-05T01:52:18.030Z,102577.00
2019-01-05T01:55:07.027Z,102578.00
2019-01-05T01:57:41.642Z,102579.00
2019-01-05T02:00:23.507Z,102576.00
2019-01-05T02:03:18.408Z,102578.00
2019-01-05T02:05:51.126Z,102575.00
2019-01-05T02:08:29.581Z,102574.00
2019-01-05T02:11:13.864Z,102583.00
2019-01-05T02:13:53.749Z,102570.00
2019-01-05T02:16:45.548Z,102574.00
2019-01-05T02:19:40.786Z,102574.00
2019-01-05T02:22:54.362Z,102568.00
2019-01-05T02:25:48.077Z,102572.00
2019-01-05T02:28:50.868Z,102565.00
2019-01-05T02:31:53.952Z,102569.00
2019-01-05T02:34:38.335Z,102572.00
2019-01-05T02:37:34.700Z,102562.00
2019-01-05T02:40:55.093Z,102557.00
2019-01-05T02:44:05.027Z,102561.00
2019-01-05T02:47:20.282Z,102557.00
2019-01-05T02:50:22.854Z,102546.00
2019-01-05T02:53:22.350Z,102547.00
2019-01-05T02:56:06.648Z,102541.00
2019-01-05T02:59:10.097Z,102543.00
2019-01-05T03:02:28.141Z,102537.00
2019-01-05T03:05:24.587Z,102541.00
2019-01-05T03:08:26.792Z,102542.00
2019-01-05T03:11:41.189Z,102546.00
2019-01-05T03:14:16.909Z,102542.00
2019-01-05T03:17:49.753Z,102540.00
2019-01-05T03:21:20.916Z,102527.00
2019-01-05T03:24:20.206Z,102533.00
2019-01-05T03:27:32.133Z,102529.00
2019-01-05T03:30:32.725Z,102525.00
2019-01-05T03:33:37.228Z,102523.00
2019-01-05T03:36:39.773Z,102522.00
2019-01-05T03:39:41.107Z,102520.00
2019-01-05T03:43:03.612Z,102522.00
2019-01-05T03:46:06.035Z,102526.00
2019-01-05T03:48:59.032Z,102521.00
2019-01-05T03:52:22.913Z,102520.00
2019-01-05T03:55:34.030Z,102504.00
2019-01-05T03:58:51.785Z,102500.00
2019-01-05T04:02:16.461Z,102502.00
2019-01-05T04:04:57.687Z,102498.00
2019-01-05T04:08:10.767Z,102495.00
2019-01-05T04:11:28.374Z,102497.00
2019-01-05T04:14:29.190Z,102496.00
2019-01-05T04:17:34.815Z,102477.00
2019-01-05T04:21:08.843Z,102489.00
2019-01-05T04:23:55.885Z,102486.00
2019-01-05T04:26:56.371Z,102480.00
2019-01-05T04:29:51.690Z,102469.00
2019-01-05T04:32:52.023Z,102473.00
2019-01-05T04:35:49.843Z,102472.00
2019-01-05T04:38:43.418Z,102466.00
2019-01-05T04:41:25.166Z,102475.00
2019-01-05T04:47:33.394Z,102462.00
2019-01-05T04:50:40.417Z,102468.00
2019-01-05T04:53:34.182Z,102466.00
2019-01-05T04:57:15.076Z,102473.00
2019-01-05T05:00:30.534Z,102468.00
2019-01-05T05:03:29.658Z,102464.00
2019-01-05T05:06:37.817Z,102472.00
2019-01-05T05:09:48.821Z,102472.00
2019-01-05T05:13:08.964Z,102467.00
2019-01-05T05:16:07.151Z,102468.00
2019-01-05T05:19:16.246Z,102455.00
2019-01-05T05:22:29.275Z,102461.00
2019-01-05T05:25:23.307Z,102458.00
2019-01-05T05:28:19.791Z,102457.00
2019-01-05T05:31:35.595Z,102461.00
2019-01-05T05:35:02.440Z,102463.00
2019-01-05T05:38:14.725Z,102463.00
2019-01-05T05:41:49.335Z,102462.00
2019-01-05T05:44:54.949Z,102457.00
2019-01-05T05:48:05.496Z,102465.00
2019-01-05T05:51:15.504Z,102456.00
2019-01-05T05:54:36.353Z,102453.00
2019-01-05T05:57:49.435Z,102454.00
2019-01-05T06:00:55.285Z,102457.00
2019-01-05T06:04:07.123Z,102462.00
2019-01-05T06:07:35.051Z,102462.00
2019-01-05T06:10:45.495Z,102459.00
2019-01-05T06:13:41.986Z,102461.00
2019-01-05T06:16:37.323Z,102462.00
2019-01-05T06:19:48.860Z,102455.00
2019-01-05T06:23:08.222Z,102456.00
2019-01-05T06:26:36.720Z,102450.00
2019-01-05T06:29:48.033Z,102451.00
2019-01-05T06:33:08.936Z,102449.00
2019-01-05T06:36:32.716Z,102458.00
2019-01-05T06:39:23.384Z,102453.00
2019-01-05T06:42:38.005Z,102448.00
2019-01-05T06:45:40.252Z,102465.00
2019-01-05T06:48:39.643Z,102463.00
2019-01-05T06:52:14.357Z,102463.00
2019-01-05T06:55:22.273Z,102472.00
2019-01-05T06:58:22.788Z,102464.00
2019-01-05T07:01:31.773Z,102467.00
2019-01-05T07:04:37.086Z,102460.00
2019-01-05T07:08:00.713Z,102463.00
2019-01-05T07:11:15.499Z,102472.00
2019-01-05T07:14:27.093Z,102463.00
2019-01-05T07:17:34.054Z,102455.00
2019-01-05T07:20:23.778Z,102460.00
2019-01-05T07:23:47.843Z,102461.00
2019-01-05T07:27:02.397Z,102465.00
2019-01-05T07:30:33.809Z,102460.00
2019-01-05T07:33:57.181Z,102476.00
2019-01-05T07:37:01.594Z,102468.00
2019-01-05T07:39:59.329Z,102466.00
2019-01-05T07:43:11.214Z,102462.00
2019-01-05T07:46:31.407Z,102463.00
2019-01-05T07:49:43.202Z,102466.00
2019-01-05T07:52:58.237Z,102476.00
2019-01-05T07:56:06.038Z,102462.00
2019-01-05T07:59:33.508Z,102464.00
2019-01-05T08:02:23.753Z,102470.00
2019-01-05T08:05:56.156Z,102470.00
2019-01-05T08:09:12.753Z,102462.00
2019-01-05T08:12:19.684Z,102475.00
2019-01-05T08:15:32.333Z,102480.00
2019-01-05T08:19:09.059Z,102469.00
2019-01-05T08:22:23.467Z,102466.00
2019-01-05T08:25:35.119Z,102458.00
2019-01-05T08:28:45.231Z,102469.00
2019-01-05T08:32:13.768Z,102473.00
2019-01-05T08:35:21.622Z,102480.00
2019-01-05T08:38:36.077Z,102453.00
2019-01-05T08:42:04.354Z,102466.00
2019-01-05T08:45:18.576Z,102473.00
2019-01-05T08:48:30.583Z,102473.00
2019-01-05T08:51:43.737Z,102480.00
2019-01-05T08:55:05.265Z,102476.00
2019-01-05T08:58:22.807Z,102473.00
2019-01-05T09:01:31.261Z,102472.00
2019-01-05T09:04:45.307Z,102475.00
2019-01-05T09:07:49.913Z,102470.00
2019-01-05T09:10:56.676Z,102464.00
2019-01-05T09:13:40.961Z,102472.00
2019-01-05T09:17:04.272Z,102459.00
2019-01-05T09:20:02.071Z,102467.00
2019-01-05T09:23:03.182Z,102465.00
2019-01-05T09:26:32.309Z,102471.00
2019-01-05T09:29:29.154Z,102449.00
2019-01-05T09:32:45.390Z,102460.00
2019-01-05T09:36:12.349Z,102454.00
2019-01-05T09:39:28.513Z,102455.00
2019-01-05T09:42:41.212Z,102456.00
2019-01-05T09:45:52.860Z,102462.00
2019-01-05T09:49:11.519Z,102447.00
2019-01-05T09:52:34.976Z,102467.00
2019-01-05T09:55:16.837Z,102448.00
2019-01-05T09:58:45.438Z,102450.00
2019-01-05T10:01:58.073Z,102456.00
2019-01-05T10:04:45.280Z,102468.00
2019-01-05T10:08:02.946Z,102446.00
2019-01-05T10:10:59.085Z,102453.00
2019-01-05T10:14:19.577Z,102460.00
2019-01-05T10:17:48.089Z,102460.00
2019-01-05T10:21:01.372Z,102448.00
2019-01-05T10:24:16.847Z,102455.00
2019-01-05T10:27:20.273Z,102454.00
2019-01-05T10:30:36.534Z,102468.00
2019-01-05T10:33:32.819Z,102464.00
2019-01-05T10:36:33.780Z,102454.00
2019-01-05T10:40:09.921Z,102458.00
2019-01-05T10:43:25.073Z,102459.00
2019-01-05T10:46:53.332Z,102448.00
2019-01-05T10:50:19.338Z,102445.00
2019-01-05T10:53:22.271Z,102439.00
2019-01-05T10:56:18.768Z,102454.00
2019-01-05T10:59:43.927Z,102445.00
2019-01-05T11:02:55.466Z,102446.00
2019-01-05T11:06:09.358Z,102441.00
2019-01-05T11:09:17.367Z,102449.00
2019-01-05T11:12:18.977Z,102434.00
2019-01-05T11:15:27.557Z,102437.00
2019-01-05T11:18:19.709Z,102439.00
2019-01-05T11:21:34.452Z,102437.00
2019-01-05T11:24:56.625Z,102441.00
2019-01-05T11:28:14.539Z,102350.00
2019-01-05T11:31:07.854Z,102427.00
2019-01-05T11:34:01.474Z,102418.00
2019-01-05T11:37:10.188Z,102410.00
2019-01-05T11:40:22.120Z,102430.00
2019-01-05T11:43:47.465Z,102432.00
2019-01-05T11:46:55.311Z,102427.00
2019-01-05T11:50:34.000Z,102424.00
2019-01-05T11:54:04.688Z,102414.00
2019-01-05T11:57:14.866Z,102416.00
2019-01-05T12:00:34.219Z,102409.00
2019-01-05T12:04:03.827Z,102398.00
2019-01-05T12:07:08.154Z,102396.00
2019-01-05T12:09:54.985Z,102400.00
2019-01-05T12:13:01.496Z,102395.00
2019-01-05T12:16:40.684Z,102391.00
2019-01-05T12:20:00.221Z,102382.00
2019-01-05T12:23:30.378Z,102388.00
2019-01-05T12:26:43.061Z,102378.00
2019-01-05T12:30:05.107Z,102381.00
2019-01-05T12:33:31.513Z,102383.00
2019-01-05T12:36:56.301Z,102385.00
2019-01-05T12:39:59.662Z,102374.00
2019-01-05T12:43:11.332Z,102367.00
2019-01-05T12:46:21.465Z,102370.00
2019-01-05T12:49:31.442Z,102362.00
2019-01-05T12:52:46.262Z,102365.00
2019-01-05T12:55:57.915Z,102363.00
2019-01-05T12:59:06.536Z,102368.00
2019-01-05T13:02:01.706Z,102360.00
2019-01-05T13:05:16.642Z,102354.00
2019-01-05T13:08:00.969Z,102363.00
2019-01-05T13:11:08.450Z,102351.00
2019-01-05T13:14:15.857Z,102345.00
2019-01-05T13:17:37.010Z,102353.00
2019-01-05T13:21:02.050Z,102354.00
2019-01-05T13:24:27.351Z,102353.00
2019-01-05T13:27:30.870Z,102355.00
2019-01-05T13:30:35.907Z,102351.00
2019-01-05T13:33:59.924Z,102347.00
2019-01-05T13:37:32.420Z,102351.00
2019-01-05T13:40:32.107Z,102339.00
2019-01-05T13:44:09.284Z,102354.00
2019-01-05T13:47:23.970Z,102343.00
2019-01-05T13:50:32.224Z,102353.00
2019-01-05T13:53:19.183Z,102347.00
2019-01-05T13:56:00.964Z,102347.00
2019-01-05T13:58:38.781Z,102354.00
2019-01-05T14:01:34.903Z,102350.00
2019-01-05T14:04:22.550Z,102354.00
2019-01-05T14:06:53.807Z,102362.00
2019-01-05T14:09:37.456Z,102356.00
2019-01-05T14:12:08.775Z,102365.00
2019-01-05T14:14:40.089Z,102364.00
2019-01-05T14:17:26.453Z,102360.00
2019-01-05T14:19:57.775Z,102357.00
2019-01-05T14:22:35.018Z,102353.00
2019-01-05T14:25:10.895Z,102352.00
2019-01-05T14:27:42.219Z,102350.00
2019-01-05T14:30:22.404Z,102353.00
2019-01-05T14:33:05.708Z,102343.00
2019-01-05T14:35:51.943Z,102347.00
2019-01-05T14:38:23.270Z,102350.00
2019-01-05T14:40:57.377Z,102349.00
2019-01-05T14:43:34.481Z,102353.00
2019-01-05T14:46:20.652Z,102343.00
2019-01-05T14:48:51.981Z,102346.00
2019-01-05T14:51:39.313Z,102350.00
2019-01-05T14:54:26.727Z,102346.00
2019-01-05T14:57:00.626Z,102339.00
2019-01-05T14:59:48.093Z,102341.00
2019-01-05T15:02:34.573Z,102354.00
2019-01-05T15:05:22.196Z,102344.00
2019-01-05T15:08:09.621Z,102351.00
2019-01-05T15:10:43.709Z,102348.00
2019-01-05T15:13:14.961Z,102344.00
2019-01-05T15:15:48.688Z,102335.00
2019-01-05T15:18:36.272Z,102333.00
2019-01-05T15:21:13.717Z,102330.00
2019-01-05T15:23:47.631Z,102338.00
2019-01-05T15:26:35.422Z,102348.00
2019-01-05T15:29:12.911Z,102344.00
2019-01-05T15:31:44.224Z,102337.00
2019-01-05T15:34:36.182Z,102324.00
2019-01-05T15:37:20.892Z,102333.00
2019-01-05T15:39:54.667Z,102329.00
2019-01-05T15:42:33.564Z,102339.00
2019-01-05T15:45:11.022Z,102331.00
2019-01-05T15:47:42.301Z,102332.00
2019-01-05T15:50:17.968Z,102334.00
2019-01-05T15:52:49.616Z,102336.00
2019-01-05T15:55:37.002Z,102331.00
2019-01-05T15:58:14.583Z,102331.00
2019-01-05T16:00:45.904Z,102323.00
2019-01-05T16:03:30.432Z,102326.00
2019-01-05T16:06:01.745Z,102321.00
2019-01-05T16:08:38.897Z,102331.00
2019-01-05T16:11:12.755Z,102321.00
2019-01-05T16:14:01.425Z,102316.00
2019-01-05T16:16:32.625Z,102325.00
2019-01-05T16:19:19.166Z,102314.00
2019-01-05T16:21:53.608Z,102324.00
2019-01-05T16:24:36.706Z,102319.00
2019-01-05T16:27:10.540Z,102327.00
2019-01-05T16:29:56.711Z,102318.00
2019-01-05T16:32:44.150Z,102323.00
2019-01-05T16:35:30.519Z,102332.00
2019-01-05T16:38:19.649Z,102322.00
2019-01-05T16:40:56.848Z,102330.00
2019-01-05T16:43:33.902Z,102312.00
2019-01-05T16:46:07.293Z,102322.00
2019-01-05T16:48:54.704Z,102320.00
2019-01-05T16:51:33.607Z,102322.00
2019-01-05T16:54:07.607Z,102324.00
2019-01-05T16:56:55.167Z,102318.00
2019-01-05T16:59:43.614Z,102316.00
2019-01-05T17:02:33.387Z,102324.00
2019-01-05T17:05:16.363Z,102326.00
2019-01-05T17:07:54.037Z,102309.00
2019-01-05T17:10:25.333Z,102321.00
2019-01-05T17:13:12.742Z,102307.00
2019-01-05T17:15:49.028Z,102303.00
2019-01-05T17:18:22.892Z,102301.00
2019-01-05T17:21:13.466Z,102307.00
2019-01-05T17:24:01.088Z,102308.00
2019-01-05T17:26:32.414Z,102231.00
2019-01-05T17:29:20.727Z,102311.00
2019-01-05T17:32:03.814Z,102316.00
2019-01-05T17:34:47.009Z,102319.00
2019-01-05T17:37:22.386Z,102310.00
2019-01-05T17:40:04.080Z,102317.00
2019-01-05T17:42:52.585Z,102311.00
2019-01-05T17:45:29.755Z,102326.00
2019-01-05T17:48:00.998Z,102317.00
2019-01-05T17:50:47.310Z,102315.00
2019-01-05T17:53:21.061Z,102311.00
2019-01-05T17:55:53.736Z,102310.00
2019-01-05T17:58:26.712Z,102323.00
2019-01-05T18:01:14.365Z,102307.00
2019-01-05T18:03:58.166Z,102317.00
2019-01-05T18:06:41.100Z,102316.00
2019-01-05T18:09:26.770Z,102310.00
2019-01-05T18:12:12.116Z,102310.00
2019-01-05T18:15:04.836Z,102308.00
2019-01-05T18:17:38.841Z,102329.00
2019-01-05T18:20:10.154Z,102308.00
2019-01-05T18:22:44.203Z,102305.00
2019-01-05T18:25:32.488Z,102303.00
2019-01-05T18:28:09.921Z,102310.00
2019-01-05T18:30:57.536Z,102300.00
2019-01-05T18:33:28.856Z,102302.00
2019-01-05T18:36:02.754Z,102299.00
2019-01-05T18:38:37.010Z,102306.00
2019-01-05T18:41:24.308Z,102300.00
2019-01-05T18:43:55.572Z,102304.00
2019-01-05T18:46:26.893Z,102297.00
2019-01-05T18:48:58.178Z,102293.00
2019-01-05T18:51:44.886Z,102278.00
2019-01-05T18:54:31.157Z,102273.00
2019-01-05T18:57:18.457Z,102284.00
2019-01-05T18:59:49.668Z,102278.00
2019-01-05T19:02:23.745Z,102275.00
2019-01-05T19:05:11.548Z,102279.00
2019-01-05T19:07:47.359Z,102272.00
2019-01-05T19:10:35.510Z,102273.00
2019-01-05T19:13:23.141Z,102284.00
2019-01-05T19:16:11.204Z,102280.00
2019-01-05T19:18:42.935Z,102272.00
2019-01-05T19:21:33.058Z,102107.00
2019-01-05T19:24:20.837Z,102269.00
2019-01-05T19:26:52.178Z,102279.00
2019-01-05T19:29:39.167Z,102271.00
2019-01-05T19:32:13.338Z,102272.00
2019-01-05T19:34:59.675Z,102270.00
2019-01-05T19:37:49.467Z,102278.00
2019-01-05T19:40:38.974Z,102275.00
2019-01-05T19:43:29.092Z,102272.00
2019-01-05T19:46:06.108Z,102270.00
2019-01-05T19:48:37.492Z,102270.00
2019-01-05T19:51:17.900Z,102273.00
2019-01-05T19:53:49.475Z,102285.00
2019-01-05T19:56:37.254Z,102278.00
2019-01-05T19:59:17.907Z,102287.00
2019-01-05T20:01:55.605Z,102286.00
2019-01-05T20:04:43.367Z,102283.00
2019-01-05T20:07:33.433Z,102279.00
2019-01-05T20:10:09.158Z,102280.00
2019-01-05T20:12:43.008Z,102274.00
2019-01-05T20:15:27.702Z,102271.00
2019-01-05T20:18:05.688Z,102268.00
2019-01-05T20:20:37.520Z,102282.00
2019-01-05T20:23:25.678Z,102282.00
2019-01-05T20:26:06.075Z,102280.00
2019-01-05T20:28:40.461Z,102269.00
2019-01-05T20:31:29.114Z,102275.00
2019-01-05T20:34:03.945Z,102279.00
2019-01-05T20:36:41.526Z,102267.00
2019-01-05T20:39:15.852Z,102267.00
2019-01-05T20:41:53.160Z,102269.00
2019-01-05T20:44:27.140Z,102275.00
2019-01-05T20:47:07.716Z,102272.00
2019-01-05T20:49:53.194Z,102262.00
2019-01-05T20:52:27.523Z,102277.00
2019-01-05T20:55:04.590Z,102267.00
2019-01-05T20:57:36.249Z,102274.00
2019-01-05T21:00:13.812Z,102274.00
2019-01-05T21:02:45.292Z,102277.00
2019-01-05T21:05:36.177Z,102270.00
2019-01-05T21:08:07.769Z,102278.00
2019-01-05T21:10:57.731Z,102288.00
2019-01-05T21:13:36.989Z,102281.00
2019-01-05T21:16:08.540Z,102295.00
2019-01-05T21:18:40.790Z,102284.00
2019-01-05T21:21:12.253Z,102297.00
2019-01-05T21:23:53.331Z,102289.00
2019-01-05T21:26:27.032Z,102281.00
2019-01-05T21:29:16.294Z,102289.00
2019-01-05T21:32:00.060Z,102280.00
2019-01-05T21:34:46.454Z,102291.00
2019-01-05T21:37:27.113Z,102302.00
2019-01-05T21:40:09.958Z,102289.00
2019-01-05T21:42:56.269Z,102293.00
2019-01-05T21:45:29.644Z,102286.00
2019-01-05T21:48:01.326Z,102282.00
2019-01-05T21:50:42.143Z,102284.00
2019-01-05T21:53:32.335Z,102278.00
2019-01-05T21:56:19.890Z,102275.00
2019-01-05T21:58:56.715Z,102272.00
2019-01-05T22:01:37.624Z,102281.00
2019-01-05T22:04:21.153Z,102290.00
2019-01-05T22:07:09.097Z,102273.00
2019-01-05T22:09:47.595Z,102272.00
2019-01-05T22:12:21.937Z,102269.00
2019-01-05T22:15:02.415Z,102282.00
2019-01-05T22:17:34.138Z,102279.00
2019-01-05T22:20:14.607Z,102271.00
2019-01-05T22:23:02.961Z,102271.00
2019-01-05T22:25:50.890Z,102274.00
2019-01-05T22:28:29.339Z,102262.00
2019-01-05T22:31:04.155Z,102266.00
2019-01-05T22:33:51.996Z,102269.00
2019-01-05T22:36:23.538Z,102274.00
2019-01-05T22:39:15.779Z,102263.00
2019-01-05T22:42:05.948Z,102262.00
2019-01-05T22:44:54.463Z,102253.00
2019-01-05T22:47:42.438Z,102258.00
2019-01-05T22:50:30.068Z,102255.00
2019-01-05T22:53:18.601Z,102246.00
2019-01-05T22:55:52.370Z,102247.00
2019-01-05T22:58:40.002Z,102242.00
2019-01-05T23:01:11.647Z,102244.00
2019-01-05T23:03:59.081Z,102250.00
2019-01-05T23:06:33.163Z,102253.00
2019-01-05T23:09:04.642Z,102256.00
2019-01-05T23:11:35.954Z,102258.00
2019-01-05T23:14:13.151Z,102255.00
2019-01-05T23:16:50.188Z,102271.00
2019-01-05T23:19:37.820Z,102249.00
2019-01-05T23:22:25.426Z,102245.00
2019-01-05T23:25:08.616Z,102253.00
2019-01-05T23:27:51.808Z,102243.00
2019-01-05T23:30:32.372Z,102241.00
2019-01-05T23:33:03.669Z,102240.00
2019-01-05T23:35:57.053Z,102230.00
2019-01-05T23:38:38.639Z,102242.00
2019-01-05T23:41:12.434Z,102245.00
2019-01-05T23:43:46.631Z,102243.00
2019-01-05T23:46:25.236Z,102243.00
2019-01-05T23:49:14.415Z,102240.00
2019-01-05T23:52:01.779Z,102230.00
2019-01-05T23:54:35.622Z,102242.00
2019-01-05T23:57:22.723Z,102237.00
